Time;durP1;ratioP1;P1;durP2;ratioP2;P2;SDS_P1;SDS_P2;PMS_P1;PMS_P2;Temp;Humidity;BMP_temperature;BMP_pressure;BME280_temperature;BME280_humidity;BME280_pressure;Samples;Min_cycle;Max_cycle;Signal;HPM_P1;HPM_P2
2024/04/06 00:01:20;;;;;;;13.18;5.35;;;;;;;16.83;71.45;100403.97;5099092;27;20430;-57
2024/04/06 00:03:46;;;;;;;10.88;5.47;;;;;;;16.81;72.24;100412.19;5115591;27;20043;-55
2024/04/06 00:06:13;;;;;;;10.55;5.10;;;;;;;16.77;72.44;100409.84;5115561;27;20047;-57
2024/04/06 00:08:41;;;;;;;13.50;5.32;;;;;;;16.80;72.10;100409.63;5115579;27;20039;-59
2024/04/06 00:11:09;;;;;;;11.43;5.13;;;;;;;16.89;71.91;100411.53;5115416;27;20044;-57
2024/04/06 00:13:35;;;;;;;9.27;4.68;;;;;;;16.83;71.86;100401.25;5115346;27;20054;-60
2024/04/06 00:16:02;;;;;;;10.48;4.72;;;;;;;16.70;73.20;100412.22;5115100;27;20051;-58
2024/04/06 00:18:30;;;;;;;11.10;4.63;;;;;;;16.69;73.51;100412.31;5115428;27;20157;-57
2024/04/06 00:20:57;;;;;;;8.32;4.57;;;;;;;16.71;73.71;100415.78;5115340;27;20151;-58
2024/04/06 00:23:23;;;;;;;8.80;4.72;;;;;;;16.70;73.39;100414.06;5114890;27;20054;-55
2024/04/06 00:25:50;;;;;;;8.57;4.55;;;;;;;16.66;73.71;100415.25;5115074;27;20051;-56
2024/04/06 00:28:17;;;;;;;10.63;4.88;;;;;;;16.83;73.24;100414.75;5114942;27;20455;-57
2024/04/06 00:30:44;;;;;;;9.75;4.68;;;;;;;16.88;72.93;100407.09;5115037;27;20528;-56
2024/04/06 00:33:10;;;;;;;8.55;4.25;;;;;;;16.78;73.36;100412.41;5115029;27;20119;-57
2024/04/06 00:35:39;;;;;;;10.45;4.88;;;;;;;16.76;73.43;100408.13;5115090;27;20043;-57
2024/04/06 00:38:06;;;;;;;10.10;4.90;;;;;;;16.71;72.84;100407.69;5119025;27;20051;-57
2024/04/06 00:40:34;;;;;;;8.60;4.32;;;;;;;16.88;72.23;100401.72;5116424;27;20130;-59
2024/04/06 00:43:00;;;;;;;10.65;4.35;;;;;;;16.89;72.41;100406.16;5115603;27;20047;-56
2024/04/06 00:45:27;;;;;;;12.85;4.90;;;;;;;16.75;73.18;100407.28;5115105;27;20047;-56
2024/04/06 00:47:54;;;;;;;9.95;4.60;;;;;;;16.74;72.91;100389.41;5114700;27;20076;-59
2024/04/06 00:50:21;;;;;;;8.55;4.30;;;;;;;16.83;72.75;100393.19;5114596;27;20480;-58
2024/04/06 00:52:48;;;;;;;8.40;4.50;;;;;;;16.74;73.46;100393.94;5114632;27;20491;-58
2024/04/06 00:55:16;;;;;;;8.35;4.22;;;;;;;16.69;74.04;100396.16;5114506;27;20043;-56
2024/04/06 00:57:43;;;;;;;8.23;3.88;;;;;;;16.73;73.91;100397.63;5114569;27;20069;-59
2024/04/06 01:00:11;;;;;;;8.10;4.10;;;;;;;16.68;74.15;100389.03;5114311;27;20058;-58
2024/04/06 01:02:38;;;;;;;9.02;4.10;;;;;;;16.67;74.00;100392.72;5113971;27;20047;-56
2024/04/06 01:05:05;;;;;;;9.77;4.65;;;;;;;16.66;73.89;100391.88;5114564;27;20047;-55
2024/04/06 01:07:31;;;;;;;7.82;4.07;;;;;;;16.38;75.79;100382.50;5114419;27;20050;-58
2024/04/06 01:10:00;;;;;;;7.88;4.47;;;;;;;16.27;77.03;100382.53;5114330;27;20047;-57
2024/04/06 01:12:26;;;;;;;7.22;4.22;;;;;;;16.15;77.80;100387.09;5114269;27;20047;-58
2024/04/06 01:14:54;;;;;;;8.85;4.15;;;;;;;16.25;77.05;100388.06;5114279;27;20043;-56
2024/04/06 01:17:20;;;;;;;10.10;4.38;;;;;;;16.38;76.41;100377.13;5114208;27;20134;-58
2024/04/06 01:19:48;;;;;;;8.95;4.07;;;;;;;16.49;75.75;100378.94;5114165;27;20043;-57
2024/04/06 01:22:14;;;;;;;7.80;4.05;;;;;;;16.59;75.17;100385.25;5114331;27;20039;-59
2024/04/06 01:24:43;;;;;;;8.40;4.20;;;;;;;16.57;74.99;100377.31;5114094;27;20051;-58
2024/04/06 01:27:09;;;;;;;7.93;3.90;;;;;;;16.51;75.21;100379.69;5113987;27;20066;-56
2024/04/06 01:29:36;;;;;;;11.15;4.40;;;;;;;16.42;75.92;100386.69;5113639;27;20661;-58
2024/04/06 01:32:03;;;;;;;9.05;4.30;;;;;;;16.19;77.66;100388.53;5113962;27;20035;-57
2024/04/06 01:34:30;;;;;;;8.38;4.15;;;;;;;15.88;79.92;100395.56;5114075;27;20051;-59
2024/04/06 01:36:56;;;;;;;10.40;4.60;;;;;;;15.71;81.82;100404.97;5113570;27;20124;-58
2024/04/06 01:39:24;;;;;;;13.45;5.28;;;;;;;15.87;80.87;100396.53;5113448;27;20039;-57
2024/04/06 01:41:51;;;;;;;9.70;4.22;;;;;;;16.13;79.40;100399.84;5113774;27;20076;-56
2024/04/06 01:44:18;;;;;;;6.85;4.25;;;;;;;16.23;78.92;100394.56;5114013;27;20046;-58
2024/04/06 01:46:44;;;;;;;8.32;4.32;;;;;;;16.27;78.63;100401.38;5113823;27;20062;-58
2024/04/06 01:49:12;;;;;;;8.90;4.10;;;;;;;16.36;77.98;100397.94;5113722;27;20129;-57
2024/04/06 01:51:38;;;;;;;7.70;3.92;;;;;;;16.38;78.15;100397.81;5113406;27;20054;-57
2024/04/06 01:54:05;;;;;;;9.35;4.03;;;;;;;16.41;77.92;100398.44;5113438;27;20043;-57
2024/04/06 01:56:31;;;;;;;7.32;3.90;;;;;;;16.34;78.72;100397.22;5113402;27;20059;-56
2024/04/06 01:59:00;;;;;;;10.90;4.55;;;;;;;16.14;78.96;100384.53;5113476;27;20131;-58
2024/04/06 02:01:26;;;;;;;8.20;4.07;;;;;;;16.23;78.61;100384.66;5113416;27;20043;-58
2024/04/06 02:03:53;;;;;;;9.00;4.53;;;;;;;16.22;78.62;100376.69;5113278;27;20043;-56
2024/04/06 02:06:20;;;;;;;7.70;3.60;;;;;;;16.27;79.43;100378.00;5113183;27;20046;-58
2024/04/06 02:08:47;;;;;;;9.73;4.13;;;;;;;16.05;79.97;100380.75;5113121;28;20501;-58
2024/04/06 02:11:13;;;;;;;6.85;3.85;;;;;;;15.91;80.77;100384.53;5113143;27;20078;-57
2024/04/06 02:13:40;;;;;;;11.30;4.65;;;;;;;15.93;81.07;100384.44;5112947;28;20152;-58
2024/04/06 02:16:08;;;;;;;10.60;4.35;;;;;;;15.97;80.74;100383.19;5112956;28;20061;-58
2024/04/06 02:18:35;;;;;;;11.38;4.57;;;;;;;16.02;80.42;100398.00;5113056;28;20044;-57
2024/04/06 02:21:01;;;;;;;8.30;4.35;;;;;;;16.08;79.61;100401.16;5112868;27;20051;-56
2024/04/06 02:23:28;;;;;;;8.88;4.70;;;;;;;16.18;78.57;100386.00;5112790;28;20445;-55
2024/04/06 02:25:56;;;;;;;11.48;4.50;;;;;;;16.29;77.91;100388.66;5112942;28;20058;-57
2024/04/06 02:28:23;;;;;;;9.55;4.32;;;;;;;16.30;77.76;100385.84;5113082;28;20043;-56
2024/04/06 02:30:51;;;;;;;10.60;4.68;;;;;;;16.36;77.85;100379.09;5112863;28;20047;-57
2024/04/06 02:33:20;;;;;;;8.43;4.00;;;;;;;16.38;77.47;100381.66;5112922;28;20453;-56
2024/04/06 02:35:46;;;;;;;9.90;4.55;;;;;;;16.40;77.43;100383.25;5112713;27;20047;-57
2024/04/06 02:38:13;;;;;;;12.88;4.85;;;;;;;16.42;77.13;100367.84;5113101;28;20394;-59
2024/04/06 02:40:39;;;;;;;9.18;4.43;;;;;;;16.33;77.74;100373.13;5112999;28;20050;-57
2024/04/06 02:43:07;;;;;;;7.65;4.00;;;;;;;16.35;77.43;100365.78;5112837;28;20043;-55
2024/04/06 02:45:33;;;;;;;8.25;4.28;;;;;;;16.35;77.63;100361.25;5112861;28;20043;-56
2024/04/06 02:48:00;;;;;;;9.85;3.92;;;;;;;16.31;77.89;100365.19;5112869;28;20130;-58
2024/04/06 02:50:28;;;;;;;8.73;4.07;;;;;;;16.34;77.96;100367.63;5112702;27;20079;-57
2024/04/06 02:52:55;;;;;;;8.18;4.18;;;;;;;16.28;77.99;100371.66;5112667;28;20477;-57
2024/04/06 02:55:21;;;;;;;8.45;4.10;;;;;;;16.33;78.12;100362.38;5112704;28;20153;-57
2024/04/06 02:57:48;;;;;;;11.13;4.70;;;;;;;16.31;77.84;100362.50;5112764;28;20119;-55
2024/04/06 03:00:15;;;;;;;7.22;3.65;;;;;;;16.30;78.29;100364.28;5104530;28;20062;-57
2024/04/06 03:02:43;;;;;;;9.07;4.30;;;;;;;16.28;78.03;100365.41;5112525;28;20511;-56
2024/04/06 03:05:10;;;;;;;7.63;4.30;;;;;;;16.26;78.25;100370.06;5113134;27;20515;-56
2024/04/06 03:07:38;;;;;;;7.25;3.90;;;;;;;16.36;78.07;100365.66;5116370;27;20051;-57
2024/04/06 03:10:05;;;;;;;8.05;4.22;;;;;;;16.25;78.55;100371.91;5116303;27;20051;-58
2024/04/06 03:12:32;;;;;;;8.68;3.78;;;;;;;16.31;78.14;100370.56;5116365;27;20127;-58
2024/04/06 03:14:58;;;;;;;7.90;3.80;;;;;;;16.33;78.10;100371.28;5116351;27;20047;-58
2024/04/06 03:17:26;;;;;;;8.23;3.75;;;;;;;16.37;77.47;100361.97;5116158;27;20086;-58
2024/04/06 03:19:52;;;;;;;11.23;4.30;;;;;;;16.30;77.61;100358.06;5116355;27;20051;-58
2024/04/06 03:22:19;;;;;;;8.30;4.00;;;;;;;16.34;77.56;100364.91;5116163;27;20126;-58
2024/04/06 03:24:47;;;;;;;8.50;3.92;;;;;;;16.14;79.05;100369.25;5115928;27;20052;-58
2024/04/06 03:27:14;;;;;;;10.10;4.60;;;;;;;16.23;78.63;100365.81;5107862;27;20533;-58
2024/04/06 03:29:41;;;;;;;10.02;4.60;;;;;;;16.24;78.37;100374.72;5116024;27;20047;-55
2024/04/06 03:32:08;;;;;;;10.88;4.05;;;;;;;16.25;78.38;100379.97;5115916;27;20054;-59
2024/04/06 03:34:37;;;;;;;7.93;4.10;;;;;;;16.28;78.02;100373.50;5115933;27;20454;-56
2024/04/06 03:37:04;;;;;;;8.48;4.18;;;;;;;16.24;78.24;100382.81;5115786;27;20058;-57
2024/04/06 03:39:32;;;;;;;8.57;4.00;;;;;;;16.23;78.32;100379.25;5116014;27;20126;-54
2024/04/06 03:42:01;;;;;;;7.50;4.03;;;;;;;16.17;78.33;100384.28;5115758;27;20059;-56
2024/04/06 03:44:29;;;;;;;7.47;4.00;;;;;;;16.09;78.92;100386.72;5115862;27;20550;-57
2024/04/06 03:46:55;;;;;;;10.65;4.07;;;;;;;16.09;79.27;100386.72;5115620;27;20043;-56
2024/04/06 03:49:22;;;;;;;9.25;4.10;;;;;;;16.06;79.14;100400.44;5115594;27;20472;-56
2024/04/06 03:51:49;;;;;;;9.55;4.53;;;;;;;16.07;79.36;100405.69;5115783;27;20456;-56
2024/04/06 03:54:16;;;;;;;7.97;4.60;;;;;;;16.06;79.62;100405.81;5115528;27;20135;-57
2024/04/06 03:56:42;;;;;;;8.45;4.40;;;;;;;16.03;80.04;100405.09;5115541;27;20055;-58
2024/04/06 03:59:11;;;;;;;11.63;4.53;;;;;;;16.13;79.20;100412.44;5115458;27;20562;-56
2024/04/06 04:01:37;;;;;;;7.53;4.05;;;;;;;16.10;79.15;100408.13;5115765;27;20054;-59
2024/04/06 04:04:04;;;;;;;9.05;4.50;;;;;;;16.06;79.20;100403.13;5115585;27;20043;-57
2024/04/06 04:06:31;;;;;;;8.73;4.40;;;;;;;16.01;79.16;100401.66;5115473;27;20069;-57
2024/04/06 04:08:58;;;;;;;8.20;4.25;;;;;;;16.13;79.17;100409.75;5115119;27;20050;-58
2024/04/06 04:11:24;;;;;;;7.68;4.13;;;;;;;16.14;79.07;100408.75;5115348;27;20134;-56
2024/04/06 04:13:51;;;;;;;9.77;4.68;;;;;;;16.08;79.81;100406.53;5115191;27;20054;-58
2024/04/06 04:16:19;;;;;;;10.93;4.93;;;;;;;16.07;80.02;100404.84;5115049;27;20051;-58
2024/04/06 04:18:46;;;;;;;8.90;5.05;;;;;;;16.11;79.82;100406.28;5115196;27;20078;-57
2024/04/06 04:21:13;;;;;;;11.05;4.50;;;;;;;16.07;80.11;100404.84;5115423;27;20051;-59
2024/04/06 04:23:40;;;;;;;9.75;4.80;;;;;;;16.05;80.57;100406.81;5115105;27;20391;-58
2024/04/06 04:26:07;;;;;;;10.77;4.40;;;;;;;16.00;80.73;100410.72;5115152;27;20455;-58
2024/04/06 04:28:34;;;;;;;11.35;4.70;;;;;;;15.94;81.47;100411.22;5115031;27;20435;-59
2024/04/06 04:31:12;;;;;;;9.27;4.82;;;;;;;15.97;81.41;100405.59;5114841;27;20043;-59
2024/04/06 04:33:41;;;;;;;9.85;4.55;;;;;;;16.03;81.23;100399.72;5114756;27;20047;-53
2024/04/06 04:36:08;;;;;;;11.15;4.82;;;;;;;16.00;81.11;100410.72;5114777;27;20151;-59
2024/04/06 04:38:35;;;;;;;11.98;4.90;;;;;;;15.95;82.04;100418.31;5114734;27;20047;-56
2024/04/06 04:41:02;;;;;;;12.18;4.97;;;;;;;15.92;82.41;100423.94;5114544;27;20468;-58
2024/04/06 04:43:30;;;;;;;9.82;5.22;;;;;;;15.97;81.84;100437.88;5114924;27;20373;-56
2024/04/06 04:45:56;;;;;;;14.23;5.60;;;;;;;15.90;82.10;100442.00;5114525;27;20092;-57
2024/04/06 04:48:24;;;;;;;10.05;5.13;;;;;;;15.85;82.53;100438.00;5114645;27;20046;-59
2024/04/06 04:50:51;;;;;;;9.65;5.50;;;;;;;15.48;85.11;100445.34;5114496;27;20479;-58
2024/04/06 04:53:19;;;;;;;12.85;5.00;;;;;;;15.49;86.56;100447.91;5114640;27;20062;-60
2024/04/06 04:55:45;;;;;;;13.68;5.07;;;;;;;15.67;86.06;100448.34;5114341;27;20082;-57
2024/04/06 04:58:12;;;;;;;10.07;4.80;;;;;;;15.84;85.39;100447.91;5114263;27;20134;-59
2024/04/06 05:00:38;;;;;;;10.10;5.03;;;;;;;15.66;86.15;100449.34;5114294;27;20043;-58
2024/04/06 05:03:06;;;;;;;9.68;4.85;;;;;;;15.74;86.16;100449.59;5114507;27;20043;-58
2024/04/06 05:05:33;;;;;;;9.75;5.00;;;;;;;15.77;86.09;100453.88;5114381;27;20046;-57
2024/04/06 05:08:03;;;;;;;10.40;4.97;;;;;;;15.69;86.40;100465.22;5114255;27;20083;-59
2024/04/06 05:10:29;;;;;;;11.05;5.60;;;;;;;15.64;87.07;100472.81;5114143;27;20054;-58
2024/04/06 05:12:56;;;;;;;10.43;5.47;;;;;;;15.72;86.38;100470.34;5114512;27;20427;-56
2024/04/06 05:15:22;;;;;;;15.82;5.80;;;;;;;15.77;85.62;100472.69;5114347;27;20418;-58
2024/04/06 05:17:53;;;;;;;11.43;5.13;;;;;;;15.75;85.73;100464.75;5114027;27;20415;-58
2024/04/06 05:20:19;;;;;;;13.38;5.40;;;;;;;15.87;85.17;100466.47;5114223;27;20092;-59
2024/04/06 05:22:46;;;;;;;11.35;5.30;;;;;;;15.91;84.85;100465.25;5113869;27;20412;-58
2024/04/06 05:25:14;;;;;;;10.73;5.28;;;;;;;15.97;84.28;100474.66;5105589;27;20049;-57
2024/04/06 05:27:42;;;;;;;11.55;5.47;;;;;;;15.97;83.98;100470.16;5113464;28;20043;-58
2024/04/06 05:30:09;;;;;;;9.07;5.55;;;;;;;15.90;84.95;100468.06;5113927;27;20082;-57
2024/04/06 05:32:37;;;;;;;9.73;5.50;;;;;;;15.98;84.46;100468.31;5114149;27;20250;-57
2024/04/06 05:35:03;;;;;;;13.52;6.00;;;;;;;15.83;85.32;100465.00;5113924;27;20449;-59
2024/04/06 05:37:30;;;;;;;11.32;5.85;;;;;;;15.99;85.33;100468.19;5113627;27;20445;-55
2024/04/06 05:39:56;;;;;;;10.93;5.72;;;;;;;15.79;85.92;100466.22;5113850;27;20055;-55
2024/04/06 05:42:28;;;;;;;11.68;6.20;;;;;;;15.60;87.24;100472.16;5113808;27;20050;-56
2024/04/06 05:44:55;;;;;;;12.85;6.25;;;;;;;15.76;86.04;100482.59;5113591;27;20073;-59
2024/04/06 05:47:22;;;;;;;11.68;5.65;;;;;;;15.60;88.05;100482.03;5113332;27;20047;-56
2024/04/06 05:49:49;;;;;;;10.90;5.85;;;;;;;15.65;88.09;100483.44;5113366;27;20089;-57
2024/04/06 05:52:15;;;;;;;15.13;6.20;;;;;;;15.43;88.51;100489.56;5113391;27;20119;-57
2024/04/06 05:54:43;;;;;;;11.32;6.47;;;;;;;15.51;89.08;100493.50;5113725;27;20123;-57
2024/04/06 05:57:09;;;;;;;12.98;6.10;;;;;;;15.44;89.96;100491.31;5113601;27;20058;-57
2024/04/06 05:59:38;;;;;;;11.93;6.53;;;;;;;15.66;88.44;100482.47;5113649;27;20047;-57
2024/04/06 06:02:04;;;;;;;11.38;6.20;;;;;;;15.79;87.45;100486.88;5113758;28;20066;-58
2024/04/06 06:04:32;;;;;;;10.85;6.35;;;;;;;15.70;87.63;100475.84;5113329;27;20171;-57
2024/04/06 06:06:58;;;;;;;12.65;6.20;;;;;;;15.67;88.55;100475.25;5113140;27;20048;-56
2024/04/06 06:09:25;;;;;;;9.23;5.70;;;;;;;15.71;88.45;100477.56;5113524;28;20497;-57
2024/04/06 06:11:51;;;;;;;9.82;6.03;;;;;;;15.66;88.37;100473.53;5113437;28;20479;-57
2024/04/06 06:14:22;;;;;;;13.18;6.00;;;;;;;15.68;88.35;100474.25;5113136;28;20505;-56
2024/04/06 06:16:49;;;;;;;13.48;6.10;;;;;;;15.89;87.46;100477.97;5113450;28;20086;-56
2024/04/06 06:19:17;;;;;;;13.93;5.93;;;;;;;15.91;87.33;100483.22;5113063;28;20142;-57
2024/04/06 06:21:43;;;;;;;11.77;6.38;;;;;;;15.94;87.23;100483.84;5113346;28;20071;-58
2024/04/06 06:24:10;;;;;;;10.88;5.90;;;;;;;16.17;85.35;100486.53;5113080;28;20134;-59
2024/04/06 06:26:36;;;;;;;12.52;6.53;;;;;;;16.37;84.58;100480.41;5113211;28;20035;-54
2024/04/06 06:29:04;;;;;;;11.02;5.88;;;;;;;16.20;87.32;100487.13;5113131;28;20105;-59
2024/04/06 06:31:30;;;;;;;14.07;7.00;;;;;;;16.43;84.91;100482.63;5112916;28;20746;-57
2024/04/06 06:33:58;;;;;;;12.68;7.20;;;;;;;16.45;85.42;100486.03;5112020;28;20039;-54
2024/04/06 06:36:25;;;;;;;13.20;6.85;;;;;;;16.52;84.58;100487.25;5113079;28;20092;-56
2024/04/06 06:38:52;;;;;;;11.38;6.10;;;;;;;16.77;83.49;100486.13;5113010;27;20048;-58
2024/04/06 06:41:18;;;;;;;12.60;6.50;;;;;;;16.98;81.84;100494.25;5115759;27;20054;-58
2024/04/06 06:43:45;;;;;;;14.55;7.55;;;;;;;16.93;81.41;100492.97;5117219;27;20043;-55
2024/04/06 06:46:11;;;;;;;12.02;6.95;;;;;;;16.78;81.96;100495.06;5117129;27;20094;-58
2024/04/06 06:48:39;;;;;;;15.05;7.40;;;;;;;17.04;81.40;100491.06;5117063;27;20488;-58
2024/04/06 06:51:07;;;;;;;12.90;7.10;;;;;;;17.27;80.58;100504.44;5117457;27;20053;-57
2024/04/06 06:53:34;;;;;;;12.32;6.70;;;;;;;17.46;79.28;100510.00;5109632;27;20047;-55
2024/04/06 06:56:01;;;;;;;11.82;6.93;;;;;;;17.66;77.98;100516.41;5098944;28;20120;-57
2024/04/06 06:58:28;;;;;;;13.48;7.43;;;;;;;17.67;77.46;100524.38;5119376;27;20585;-57
2024/04/06 07:00:54;;;;;;;10.25;6.97;;;;;;;17.76;76.58;100527.28;5136728;27;20091;-55
2024/04/06 07:03:21;;;;;;;18.10;7.90;;;;;;;17.89;76.70;100528.81;5137328;27;20062;-57
2024/04/06 07:05:48;;;;;;;12.35;7.32;;;;;;;18.05;76.03;100528.34;5137172;27;20057;-56
2024/04/06 07:08:16;;;;;;;14.15;7.60;;;;;;;18.16;75.87;100520.16;5137170;27;20047;-57
2024/04/06 07:10:45;;;;;;;12.80;7.82;;;;;;;18.11;76.26;100527.78;5136873;27;20089;-55
2024/04/06 07:13:12;;;;;;;15.40;7.88;;;;;;;18.29;75.13;100525.34;5137085;27;20046;-57
2024/04/06 07:15:39;;;;;;;12.90;7.68;;;;;;;18.27;74.68;100532.72;5124773;27;20053;-56
2024/04/06 07:18:07;;;;;;;12.35;7.35;;;;;;;18.33;74.28;100537.56;5115924;27;20055;-54
2024/04/06 07:20:33;;;;;;;14.77;7.78;;;;;;;18.15;73.91;100536.50;5114831;27;20047;-57
2024/04/06 07:23:01;;;;;;;13.45;7.55;;;;;;;17.97;75.10;100539.81;5113704;27;20672;-55
2024/04/06 07:25:29;;;;;;;13.10;7.88;;;;;;;18.00;75.92;100539.53;5114434;27;20057;-57
2024/04/06 07:27:56;;;;;;;14.73;8.63;;;;;;;18.26;74.99;100537.25;5114360;27;20047;-57
2024/04/06 07:30:22;;;;;;;18.50;10.85;;;;;;;18.40;74.12;100529.78;5114366;27;20211;-59
2024/04/06 07:32:50;;;;;;;16.67;9.20;;;;;;;18.43;74.36;100543.00;5113972;27;20089;-56
2024/04/06 07:35:16;;;;;;;15.00;8.57;;;;;;;18.42;73.66;100542.16;5115117;27;20047;-60
2024/04/06 07:37:43;;;;;;;12.75;7.68;;;;;;;18.47;73.81;100547.16;5115073;27;20047;-58
2024/04/06 07:40:10;;;;;;;12.38;7.57;;;;;;;18.54;73.24;100546.50;5116608;27;20388;-59
2024/04/06 07:42:39;;;;;;;14.70;7.90;;;;;;;18.56;73.24;100543.66;5115958;27;20051;-56
2024/04/06 07:45:05;;;;;;;18.63;8.43;;;;;;;18.65;72.77;100542.88;5115316;27;20043;-56
2024/04/06 07:47:32;;;;;;;13.48;7.43;;;;;;;18.85;72.56;100544.63;5114106;27;20105;-59
2024/04/06 07:49:58;;;;;;;10.57;7.75;;;;;;;18.98;71.38;100549.78;5114514;27;20053;-58
2024/04/06 07:52:26;;;;;;;15.13;8.02;;;;;;;18.95;72.19;100552.75;5113615;27;20089;-58
2024/04/06 07:54:52;;;;;;;14.55;7.63;;;;;;;19.09;71.19;100551.50;5114454;27;20360;-55
2024/04/06 07:57:19;;;;;;;11.57;7.43;;;;;;;19.20;71.12;100543.25;5114356;27;20442;-56
2024/04/06 07:59:46;;;;;;;12.38;6.82;;;;;;;19.23;70.59;100552.97;5114514;27;20043;-57
2024/04/06 08:02:14;;;;;;;12.75;8.13;;;;;;;19.29;70.50;100542.41;5115374;27;20086;-57
2024/04/06 08:04:40;;;;;;;13.32;8.07;;;;;;;19.35;68.39;100541.84;5115765;27;20054;-57
2024/04/06 08:07:08;;;;;;;12.30;7.05;;;;;;;19.30;67.89;100544.16;5115768;27;20175;-55
2024/04/06 08:09:36;;;;;;;14.15;7.97;;;;;;;19.27;66.38;100539.00;5115427;27;20047;-58
2024/04/06 08:12:04;;;;;;;15.07;8.00;;;;;;;19.26;68.09;100536.44;5115216;27;20182;-57
2024/04/06 08:14:30;;;;;;;12.65;8.20;;;;;;;19.40;68.12;100536.03;5115246;27;20134;-59
2024/04/06 08:16:58;;;;;;;15.45;8.88;;;;;;;19.43;68.11;100543.84;5115490;27;20043;-56
2024/04/06 08:19:25;;;;;;;13.75;8.90;;;;;;;19.59;67.30;100540.59;5115154;27;20472;-55
2024/04/06 08:21:52;;;;;;;14.15;8.63;;;;;;;19.78;67.58;100543.28;5114899;27;20082;-57
2024/04/06 08:24:18;;;;;;;17.98;9.27;;;;;;;19.87;67.66;100549.69;5114914;27;20045;-54
2024/04/06 08:26:45;;;;;;;16.02;8.57;;;;;;;20.10;67.49;100548.38;5115190;27;20047;-60
2024/04/06 08:29:11;;;;;;;20.17;9.60;;;;;;;20.23;65.70;100538.06;5114653;27;20073;-56
2024/04/06 08:31:39;;;;;;;16.40;9.73;;;;;;;20.02;65.82;100540.13;5114751;27;20082;-59
2024/04/06 08:34:07;;;;;;;16.25;9.57;;;;;;;20.25;65.82;100535.19;5114817;27;20047;-58
2024/04/06 08:36:35;;;;;;;13.95;9.07;;;;;;;20.36;64.21;100537.72;5115115;27;20120;-57
2024/04/06 08:39:04;;;;;;;14.32;9.02;;;;;;;20.57;63.08;100535.69;5114963;27;20054;-55
2024/04/06 08:41:31;;;;;;;17.52;9.85;;;;;;;20.80;63.70;100535.28;5114858;27;20480;-55
2024/04/06 08:44:00;;;;;;;14.68;9.10;;;;;;;20.85;62.64;100522.16;5114647;27;20039;-57
2024/04/06 08:46:30;;;;;;;18.00;9.50;;;;;;;21.04;61.70;100529.31;5114985;27;20047;-58
2024/04/06 08:48:59;;;;;;;15.55;9.60;;;;;;;21.11;61.04;100524.94;5114750;27;20075;-59
2024/04/06 08:51:32;;;;;;;14.25;8.65;;;;;;;21.42;61.39;100522.75;5113855;27;20487;-57
2024/04/06 08:53:59;;;;;;;13.80;8.13;;;;;;;21.64;60.98;100527.72;5112571;27;20054;-58
2024/04/06 08:56:26;;;;;;;15.82;7.43;;;;;;;21.70;60.06;100523.50;5116429;27;20119;-58
2024/04/06 08:58:53;;;;;;;15.65;7.75;;;;;;;21.56;58.52;100521.34;5113461;27;20126;-57
2024/04/06 09:01:20;;;;;;;12.25;7.20;;;;;;;21.54;58.76;100524.22;5113669;27;20416;-56
2024/04/06 09:03:48;;;;;;;13.57;7.30;;;;;;;21.74;59.46;100518.63;5112047;27;20040;-58
2024/04/06 09:06:18;;;;;;;15.13;7.43;;;;;;;22.03;58.44;100519.16;5112458;27;20487;-57
2024/04/06 09:08:46;;;;;;;12.23;6.35;;;;;;;22.22;58.24;100518.13;5112923;27;20073;-58
2024/04/06 09:11:13;;;;;;;14.90;6.57;;;;;;;22.24;57.81;100511.53;5112767;27;20051;-59
2024/04/06 09:13:40;;;;;;;13.65;6.68;;;;;;;22.34;57.24;100511.41;5113286;27;20075;-56
2024/04/06 09:16:09;;;;;;;12.25;6.28;;;;;;;22.33;56.05;100514.28;5111649;27;20043;-59
2024/04/06 09:18:36;;;;;;;19.17;7.78;;;;;;;22.24;55.74;100510.66;5112773;27;20043;-59
2024/04/06 09:21:06;;;;;;;10.35;6.10;;;;;;;22.40;55.67;100505.31;5112908;27;20082;-59
2024/04/06 09:23:32;;;;;;;8.65;5.03;;;;;;;22.39;53.81;100503.63;5112238;27;20130;-55
2024/04/06 09:26:02;;;;;;;8.95;4.70;;;;;;;22.15;54.47;100509.75;5111871;27;20047;-58
2024/04/06 09:28:28;;;;;;;7.90;3.60;;;;;;;22.27;53.49;100503.03;5113289;27;20372;-55
2024/04/06 09:30:58;;;;;;;6.90;3.65;;;;;;;22.37;53.05;100502.06;5113032;27;20076;-58
2024/04/06 09:33:26;;;;;;;8.23;3.85;;;;;;;22.46;53.31;100503.81;5113687;27;20075;-55
2024/04/06 09:35:54;;;;;;;11.27;3.80;;;;;;;22.53;52.98;100500.28;5112352;27;20043;-59
2024/04/06 09:38:20;;;;;;;8.43;3.83;;;;;;;22.61;53.26;100495.91;5113631;27;20150;-58
2024/04/06 09:40:48;;;;;;;8.07;4.00;;;;;;;22.74;53.96;100502.56;5113448;27;20047;-59
2024/04/06 09:43:16;;;;;;;7.53;3.42;;;;;;;22.69;54.00;100495.94;5112908;27;20510;-56
2024/04/06 09:45:44;;;;;;;9.25;3.42;;;;;;;22.87;53.90;100496.69;5111710;27;20051;-54
2024/04/06 09:48:11;;;;;;;10.65;3.95;;;;;;;22.72;54.38;100503.75;5112977;27;20039;-57
2024/04/06 09:50:39;;;;;;;9.52;3.88;;;;;;;22.72;54.71;100501.88;5112579;27;20047;-56
2024/04/06 09:53:06;;;;;;;6.50;3.65;;;;;;;22.93;54.47;100500.63;5112984;27;20054;-58
2024/04/06 09:55:37;;;;;;;10.07;3.72;;;;;;;23.00;54.47;100496.22;5111705;27;20066;-57
2024/04/06 09:58:04;;;;;;;8.75;3.80;;;;;;;22.98;53.89;100496.41;5112566;27;20061;-56
2024/04/06 10:00:34;;;;;;;8.38;3.67;;;;;;;23.08;54.56;100507.97;5112295;27;20544;-59
2024/04/06 10:03:01;;;;;;;8.75;3.50;;;;;;;23.07;54.99;100502.72;5112224;27;20551;-59
2024/04/06 10:05:38;;;;;;;7.88;3.63;;;;;;;23.12;54.87;100512.06;5111086;28;20039;-58
2024/04/06 10:08:04;;;;;;;7.28;3.70;;;;;;;23.33;54.91;100506.13;5112670;27;20047;-56
2024/04/06 10:10:32;;;;;;;7.47;3.50;;;;;;;23.40;54.86;100509.88;5115856;27;20140;-56
2024/04/06 10:12:59;;;;;;;8.40;3.70;;;;;;;23.42;52.97;100499.66;5112540;28;20058;-57
2024/04/06 10:15:28;;;;;;;8.48;3.53;;;;;;;23.50;53.21;100509.72;5110793;28;20043;-58
2024/04/06 10:17:58;;;;;;;10.18;3.45;;;;;;;23.55;53.17;100506.50;5112517;28;20133;-60
2024/04/06 10:20:27;;;;;;;8.60;3.10;;;;;;;23.57;52.22;100509.91;5112590;28;20407;-58
2024/04/06 10:22:57;;;;;;;12.60;7.68;;;;;;;23.61;52.30;100516.72;5111990;28;20051;-60
2024/04/06 10:25:33;;;;;;;8.52;3.33;;;;;;;23.75;51.16;100523.38;5111045;28;20047;-59
2024/04/06 10:28:01;;;;;;;12.35;4.43;;;;;;;23.78;52.02;100518.44;5112077;28;20043;-56
2024/04/06 10:30:29;;;;;;;7.38;3.33;;;;;;;23.83;51.63;100510.56;5113103;28;20058;-58
2024/04/06 10:32:56;;;;;;;14.77;7.72;;;;;;;23.87;51.56;100513.84;5113282;28;20047;-61
2024/04/06 10:35:24;;;;;;;8.25;3.90;;;;;;;23.83;50.39;100513.31;5111010;28;20371;-62
2024/04/06 10:37:51;;;;;;;10.00;4.88;;;;;;;23.98;51.08;100500.69;5112220;28;20483;-61
2024/04/06 10:40:18;;;;;;;9.43;3.97;;;;;;;24.25;49.87;100501.31;5112340;28;20120;-59
2024/04/06 10:42:44;;;;;;;11.30;6.30;;;;;;;24.23;49.55;100496.06;5112456;28;20051;-62
2024/04/06 10:45:12;;;;;;;15.43;8.70;;;;;;;24.47;49.27;100500.59;5111688;28;20062;-61
2024/04/06 10:47:38;;;;;;;11.40;7.43;;;;;;;24.57;48.71;100485.91;5111947;28;20051;-62
2024/04/06 10:50:09;;;;;;;13.63;8.60;;;;;;;24.67;48.67;100487.38;5112380;28;20480;-60
2024/04/06 10:52:36;;;;;;;14.30;8.50;;;;;;;24.82;48.19;100479.31;5112538;28;20047;-60
2024/04/06 10:55:09;;;;;;;10.50;4.72;;;;;;;24.96;48.09;100494.91;5111180;28;20142;-62
2024/04/06 10:57:37;;;;;;;8.10;3.65;;;;;;;25.04;47.31;100483.97;5112337;28;20513;-60
2024/04/06 11:00:08;;;;;;;8.02;3.53;;;;;;;24.95;47.02;100486.91;5112406;28;20482;-61
2024/04/06 11:02:37;;;;;;;8.35;3.30;;;;;;;24.77;46.61;100487.16;5112698;28;20055;-61
2024/04/06 11:05:06;;;;;;;7.68;3.80;;;;;;;24.70;46.97;100483.44;5111124;28;20054;-60
2024/04/06 11:07:33;;;;;;;16.60;9.30;;;;;;;24.80;47.93;100486.78;5111929;28;20479;-61
2024/04/06 11:10:01;;;;;;;4.82;2.47;;;;;;;24.56;42.65;100485.06;5113217;28;20130;-61
2024/04/06 11:12:28;;;;;;;8.15;5.28;;;;;;;24.60;42.44;100474.63;5125362;28;20046;-61
2024/04/06 11:15:00;;;;;;;18.08;13.13;;;;;;;24.80;43.39;100470.44;5132602;27;20043;-61
2024/04/06 11:17:27;;;;;;;8.32;5.40;;;;;;;24.86;40.13;100475.19;5134829;27;20434;-62
2024/04/06 11:19:55;;;;;;;7.88;4.07;;;;;;;24.66;40.59;100468.47;5134450;27;20045;-61